Time;durP1;ratioP1;P1;durP2;ratioP2;P2;SDS_P1;SDS_P2;PMS_P1;PMS_P2;Temp;Humidity;BMP_temperature;BMP_pressure;BME280_temperature;BME280_humidity;BME280_pressure;Samples;Min_cycle;Max_cycle;Signal;HPM_P1;HPM_P2
2022/08/13 00:01:42;;;;;;;3.50;1.35;;;;;;;;;;5030599;28;20061;-78
2022/08/13 00:04:09;;;;;;;5.03;2.00;;;;;;;;;;5030067;28;20041;-78
2022/08/13 00:09:09;;;;;;;10.73;1.60;;;;;;;;;;5024914;28;20087;-78
2022/08/13 00:14:22;;;;;;;5.88;1.77;;;;;;;;;;5027739;28;20048;-79
2022/08/13 00:16:48;;;;;;;3.78;1.60;;;;;;;;;;5030193;28;20022;-78
2022/08/13 00:19:15;;;;;;;5.30;2.10;;;;;;;;;;5029631;28;20072;-78
2022/08/13 00:21:41;;;;;;;7.32;1.55;;;;;;;;;;5029880;28;20055;-78
2022/08/13 00:24:07;;;;;;;4.80;1.90;;;;;;;;;;5021329;28;20479;-78
2022/08/13 00:26:33;;;;;;;3.92;1.50;;;;;;;;;;5029390;28;20037;-78
2022/08/13 00:29:00;;;;;;;6.07;2.00;;;;;;;;;;5027248;28;20033;-78
2022/08/13 00:31:26;;;;;;;4.30;1.63;;;;;;;;;;5029509;28;20036;-78
2022/08/13 00:33:53;;;;;;;3.20;1.40;;;;;;;;;;5030058;28;20045;-78
2022/08/13 00:36:21;;;;;;;8.75;2.05;;;;;;;;;;5030191;28;20026;-78
2022/08/13 00:38:47;;;;;;;3.47;1.40;;;;;;;;;;5029271;28;20036;-78
2022/08/13 00:41:37;;;;;;;5.95;1.55;;;;;;;;;;5032778;28;20030;-78
2022/08/13 00:43:59;;;;;;;3.30;1.60;;;;;;;;;;5025677;28;20402;-78
2022/08/13 00:46:25;;;;;;;5.65;1.83;;;;;;;;;;5029124;28;20029;-78
2022/08/13 00:48:53;;;;;;;3.95;1.65;;;;;;;;;;5029824;28;20041;-78
2022/08/13 00:51:20;;;;;;;5.32;1.77;;;;;;;;;;5029221;28;20021;-78
2022/08/13 00:53:46;;;;;;;4.88;1.70;;;;;;;;;;5029639;28;20034;-78
2022/08/13 00:56:13;;;;;;;4.07;1.40;;;;;;;;;;5028064;28;20364;-78
2022/08/13 00:58:39;;;;;;;5.10;1.85;;;;;;;;;;5024575;28;20612;-78
2022/08/13 01:01:06;;;;;;;6.90;1.73;;;;;;;;;;5029776;28;20025;-78
2022/08/13 01:03:34;;;;;;;4.00;1.50;;;;;;;;;;5029918;28;20040;-78
2022/08/13 01:06:01;;;;;;;5.45;1.83;;;;;;;;;;5028791;28;20036;-78
2022/08/13 01:08:31;;;;;;;4.47;1.63;;;;;;;;;;5018571;28;20045;-78
2022/08/13 01:10:59;;;;;;;4.25;1.40;;;;;;;;;;5028923;28;20179;-78
2022/08/13 01:13:26;;;;;;;4.68;1.65;;;;;;;;;;5029526;28;20048;-78
2022/08/13 01:15:53;;;;;;;4.72;1.40;;;;;;;;;;5029283;28;20033;-78
2022/08/13 01:18:22;;;;;;;3.38;1.63;;;;;;;;;;5028840;28;20356;-78
2022/08/13 01:20:49;;;;;;;2.80;1.38;;;;;;;;;;5029517;28;20029;-78
2022/08/13 01:23:17;;;;;;;4.28;1.63;;;;;;;;;;5028664;28;20033;-79
2022/08/13 01:25:44;;;;;;;6.63;1.70;;;;;;;;;;5029191;28;20429;-78
2022/08/13 01:28:11;;;;;;;2.95;1.30;;;;;;;;;;5028499;28;20022;-78
2022/08/13 01:30:37;;;;;;;4.18;1.35;;;;;;;;;;5029155;28;20029;-78
2022/08/13 01:33:04;;;;;;;5.53;2.00;;;;;;;;;;5027134;28;20087;-78
2022/08/13 01:35:30;;;;;;;6.65;1.60;;;;;;;;;;5029057;28;20037;-78
2022/08/13 01:37:57;;;;;;;5.15;1.67;;;;;;;;;;5023361;28;20125;-78
2022/08/13 01:40:24;;;;;;;3.33;1.73;;;;;;;;;;5029057;28;20466;-78
2022/08/13 01:42:50;;;;;;;6.80;1.60;;;;;;;;;;5028221;28;20064;-78
2022/08/13 01:45:17;;;;;;;4.22;1.70;;;;;;;;;;5019820;28;20538;-78
2022/08/13 01:50:29;;;;;;;6.40;1.40;;;;;;;;;;5019284;28;20055;-78
2022/08/13 01:53:04;;;;;;;4.57;1.63;;;;;;;;;;5026046;28;20108;-78
2022/08/13 01:55:39;;;;;;;5.50;1.42;;;;;;;;;;5020802;28;20030;-78
2022/08/13 01:58:31;;;;;;;4.07;1.50;;;;;;;;;;5022303;28;20036;-78
2022/08/13 02:00:59;;;;;;;3.20;1.42;;;;;;;;;;5020407;28;20054;-78
2022/08/13 02:03:25;;;;;;;5.18;1.80;;;;;;;;;;5025380;28;20034;-78
2022/08/13 02:05:51;;;;;;;5.30;1.60;;;;;;;;;;5020632;28;20459;-78
2022/08/13 02:08:22;;;;;;;3.97;1.67;;;;;;;;;;5031345;28;20033;-78
2022/08/13 02:10:49;;;;;;;2.90;1.45;;;;;;;;;;5026296;28;20101;-78
2022/08/13 02:13:17;;;;;;;3.72;1.30;;;;;;;;;;5028547;28;20080;-78
2022/08/13 02:15:45;;;;;;;8.00;1.98;;;;;;;;;;5029156;28;20048;-78
2022/08/13 02:18:17;;;;;;;5.13;1.70;;;;;;;;;;5029707;28;20044;-78
2022/08/13 02:20:44;;;;;;;4.82;1.83;;;;;;;;;;5023865;28;20056;-78
2022/08/13 02:23:15;;;;;;;6.43;1.60;;;;;;;;;;5030143;28;20032;-78
2022/08/13 02:25:41;;;;;;;6.95;1.80;;;;;;;;;;5025434;28;20112;-78
2022/08/13 02:28:07;;;;;;;2.83;1.40;;;;;;;;;;5033323;28;20163;-78
2022/08/13 02:30:35;;;;;;;3.63;1.50;;;;;;;;;;5031997;28;20030;-78
2022/08/13 02:33:03;;;;;;;5.13;1.73;;;;;;;;;;5031638;28;20096;-78
2022/08/13 02:35:29;;;;;;;6.13;1.90;;;;;;;;;;5032057;28;20037;-78
2022/08/13 02:37:55;;;;;;;5.22;1.63;;;;;;;;;;5030898;28;20123;-78
2022/08/13 02:43:06;;;;;;;3.85;1.52;;;;;;;;;;5035311;28;20128;-78
2022/08/13 02:45:32;;;;;;;3.55;1.35;;;;;;;;;;5015490;28;20064;-78
2022/08/13 02:47:58;;;;;;;4.30;1.40;;;;;;;;;;5025810;28;20060;-78
2022/08/13 02:50:24;;;;;;;4.82;1.23;;;;;;;;;;5030690;28;20490;-78
2022/08/13 02:52:51;;;;;;;7.20;1.45;;;;;;;;;;5030053;28;20038;-78
2022/08/13 02:55:19;;;;;;;6.85;1.55;;;;;;;;;;5024351;28;20040;-78
2022/08/13 02:57:45;;;;;;;5.45;1.60;;;;;;;;;;5027775;28;20033;-78
2022/08/13 03:00:11;;;;;;;3.88;1.45;;;;;;;;;;5027260;28;20053;-77
2022/08/13 03:02:39;;;;;;;6.07;1.70;;;;;;;;;;5030361;28;20022;-78
2022/08/13 03:05:05;;;;;;;4.65;1.60;;;;;;;;;;5030593;28;20040;-78
2022/08/13 03:07:31;;;;;;;3.60;1.63;;;;;;;;;;5030318;28;20029;-78
2022/08/13 03:09:57;;;;;;;3.72;1.60;;;;;;;;;;5031070;28;20889;-78
2022/08/13 03:12:23;;;;;;;3.33;1.42;;;;;;;;;;5022517;28;20562;-78
2022/08/13 03:14:50;;;;;;;7.25;1.58;;;;;;;;;;5035535;28;20501;-78
2022/08/13 03:17:16;;;;;;;4.53;1.45;;;;;;;;;;5033441;28;20072;-78
2022/08/13 03:19:42;;;;;;;5.35;1.25;;;;;;;;;;5028491;28;20033;-78
2022/08/13 03:22:08;;;;;;;4.53;1.48;;;;;;;;;;5030875;28;20080;-78
2022/08/13 03:24:34;;;;;;;4.63;1.70;;;;;;;;;;5037304;28;20043;-78
2022/08/13 03:27:01;;;;;;;5.10;1.40;;;;;;;;;;5031554;28;20029;-77
2022/08/13 03:29:31;;;;;;;7.00;1.77;;;;;;;;;;5031253;28;20745;-78
2022/08/13 03:31:57;;;;;;;2.97;1.45;;;;;;;;;;5025510;28;20076;-78
2022/08/13 03:34:23;;;;;;;5.25;1.45;;;;;;;;;;5031070;28;20131;-78
2022/08/13 03:36:51;;;;;;;2.97;1.40;;;;;;;;;;5039676;28;20109;-78
2022/08/13 03:39:17;;;;;;;3.67;1.70;;;;;;;;;;5030336;28;20037;-78
2022/08/13 03:41:43;;;;;;;4.00;1.65;;;;;;;;;;5029765;28;20044;-78
2022/08/13 03:44:09;;;;;;;4.05;1.67;;;;;;;;;;5021710;28;20052;-78
2022/08/13 03:46:36;;;;;;;8.18;1.90;;;;;;;;;;5030072;28;20029;-78
2022/08/13 03:49:02;;;;;;;4.78;1.40;;;;;;;;;;5029070;28;20041;-78
2022/08/13 03:51:28;;;;;;;4.63;1.45;;;;;;;;;;5030693;28;20067;-78
2022/08/13 03:53:54;;;;;;;9.63;1.67;;;;;;;;;;5019808;28;20037;-78
2022/08/13 03:56:22;;;;;;;4.38;1.70;;;;;;;;;;5027566;28;20415;-78
2022/08/13 03:58:49;;;;;;;3.80;1.40;;;;;;;;;;5030512;28;20061;-78
2022/08/13 04:01:17;;;;;;;5.38;1.40;;;;;;;;;;5030002;28;20121;-78
2022/08/13 04:03:43;;;;;;;3.03;1.50;;;;;;;;;;5026288;28;20043;-78
2022/08/13 04:06:15;;;;;;;4.20;1.40;;;;;;;;;;5029862;28;20025;-78
2022/08/13 04:08:41;;;;;;;4.40;1.40;;;;;;;;;;5030344;28;20044;-78
2022/08/13 04:11:08;;;;;;;3.22;1.67;;;;;;;;;;5023326;28;20037;-78
2022/08/13 04:13:38;;;;;;;6.10;1.55;;;;;;;;;;5025531;28;20034;-78
2022/08/13 04:16:11;;;;;;;6.05;1.70;;;;;;;;;;5022936;28;20033;-78
2022/08/13 04:18:38;;;;;;;6.18;1.73;;;;;;;;;;5017423;28;20049;-78
2022/08/13 04:21:08;;;;;;;2.97;1.50;;;;;;;;;;5030311;28;20541;-78
2022/08/13 04:23:34;;;;;;;5.32;1.80;;;;;;;;;;5028683;28;20455;-78
2022/08/13 04:26:01;;;;;;;3.30;1.60;;;;;;;;;;5029576;28;20063;-78
2022/08/13 04:28:27;;;;;;;3.22;1.52;;;;;;;;;;5029175;28;20095;-78
2022/08/13 04:30:53;;;;;;;7.07;1.70;;;;;;;;;;5026397;28;20145;-78
2022/08/13 04:33:19;;;;;;;5.60;1.88;;;;;;;;;;5027576;28;20079;-78
2022/08/13 04:35:46;;;;;;;4.43;1.45;;;;;;;;;;5029977;28;20037;-78
2022/08/13 04:38:13;;;;;;;3.70;1.92;;;;;;;;;;5029721;28;20037;-78
2022/08/13 04:40:40;;;;;;;4.22;1.88;;;;;;;;;;5029811;28;20036;-78
2022/08/13 04:43:06;;;;;;;6.10;1.90;;;;;;;;;;5029180;28;20525;-78
2022/08/13 04:45:33;;;;;;;3.85;1.80;;;;;;;;;;5021258;28;20044;-78
2022/08/13 04:48:00;;;;;;;2.97;1.42;;;;;;;;;;5029055;28;20128;-78
2022/08/13 04:50:29;;;;;;;3.63;1.55;;;;;;;;;;5029772;28;20033;-78
2022/08/13 04:52:55;;;;;;;7.25;2.05;;;;;;;;;;5028806;28;20037;-78
2022/08/13 04:55:21;;;;;;;2.97;1.58;;;;;;;;;;5022252;28;20030;-78
2022/08/13 04:57:48;;;;;;;4.97;1.80;;;;;;;;;;5022057;28;20033;-78
2022/08/13 05:00:14;;;;;;;2.95;1.55;;;;;;;;;;5027791;28;20049;-78
2022/08/13 05:02:41;;;;;;;4.85;1.70;;;;;;;;;;5023799;28;20053;-78
2022/08/13 05:05:09;;;;;;;4.35;1.95;;;;;;;;;;5026983;28;20478;-78
2022/08/13 05:07:36;;;;;;;5.50;2.00;;;;;;;;;;5029366;28;20550;-78
2022/08/13 05:10:02;;;;;;;7.30;2.60;;;;;;;;;;5029265;28;20041;-78
2022/08/13 05:12:28;;;;;;;13.57;2.35;;;;;;;;;;5025910;28;20057;-78
2022/08/13 05:14:54;;;;;;;8.73;2.20;;;;;;;;;;5028735;28;20037;-78
2022/08/13 05:17:20;;;;;;;7.85;2.47;;;;;;;;;;5020203;28;20034;-78
2022/08/13 05:19:46;;;;;;;4.82;2.25;;;;;;;;;;5027262;28;20067;-78
2022/08/13 05:22:12;;;;;;;5.57;1.90;;;;;;;;;;5028826;28;20037;-78
2022/08/13 05:24:38;;;;;;;6.43;2.00;;;;;;;;;;5027971;28;20559;-78
2022/08/13 05:27:04;;;;;;;6.30;1.90;;;;;;;;;;5029273;28;20021;-78
2022/08/13 05:29:30;;;;;;;6.43;2.17;;;;;;;;;;5028554;28;20041;-78
2022/08/13 05:31:56;;;;;;;7.28;2.35;;;;;;;;;;5028230;28;20037;-78
2022/08/13 05:34:27;;;;;;;5.07;1.98;;;;;;;;;;5028236;28;20049;-78
2022/08/13 05:36:54;;;;;;;7.10;1.77;;;;;;;;;;5016923;28;20022;-78
2022/08/13 05:39:20;;;;;;;10.93;2.13;;;;;;;;;;5028829;28;20072;-78
2022/08/13 05:41:48;;;;;;;6.75;1.63;;;;;;;;;;5030544;28;20471;-77
2022/08/13 05:44:14;;;;;;;5.47;2.08;;;;;;;;;;5033848;28;20112;-78
2022/08/13 05:46:41;;;;;;;8.65;1.85;;;;;;;;;;5030284;28;20108;-78
2022/08/13 05:49:08;;;;;;;6.47;1.80;;;;;;;;;;5032572;28;20558;-78
2022/08/13 05:51:34;;;;;;;6.22;1.77;;;;;;;;;;5029420;28;20034;-78
2022/08/13 05:54:01;;;;;;;4.80;1.92;;;;;;;;;;5023117;28;20037;-78
2022/08/13 05:56:32;;;;;;;9.25;1.83;;;;;;;;;;5032857;28;20032;-79
2022/08/13 05:58:59;;;;;;;5.15;1.70;;;;;;;;;;5037875;28;20067;-78
2022/08/13 06:04:14;;;;;;;4.57;2.00;;;;;;;;;;5031488;28;20685;-78
2022/08/13 06:06:41;;;;;;;4.97;1.60;;;;;;;;;;5033031;28;20817;-78
2022/08/13 06:09:09;;;;;;;5.03;1.50;;;;;;;;;;5031296;28;20041;-78
2022/08/13 06:11:37;;;;;;;7.35;1.60;;;;;;;;;;5027284;28;20425;-78
2022/08/13 06:14:04;;;;;;;4.82;1.58;;;;;;;;;;5022378;28;20034;-78
2022/08/13 06:16:30;;;;;;;3.88;1.73;;;;;;;;;;5029869;28;20060;-78
2022/08/13 06:18:59;;;;;;;3.17;1.60;;;;;;;;;;5028554;28;20061;-78
2022/08/13 06:21:26;;;;;;;3.80;1.48;;;;;;;;;;5043402;28;20165;-78
2022/08/13 06:23:53;;;;;;;2.92;1.90;;;;;;;;;;5039786;28;20029;-77
2022/08/13 06:26:20;;;;;;;7.70;1.70;;;;;;;;;;5032875;28;20105;-77
2022/08/13 06:28:47;;;;;;;7.25;2.78;;;;;;;;;;5029295;28;20033;-78
2022/08/13 06:31:16;;;;;;;6.80;2.33;;;;;;;;;;5038370;28;20029;-77
2022/08/13 06:33:42;;;;;;;9.70;1.77;;;;;;;;;;5024843;28;20065;-77
2022/08/13 06:36:10;;;;;;;4.57;1.67;;;;;;;;;;5030944;28;20047;-78
2022/08/13 06:38:44;;;;;;;5.70;2.10;;;;;;;;;;5027541;28;20097;-78
2022/08/13 06:41:11;;;;;;;5.18;1.70;;;;;;;;;;5018173;28;20025;-78
2022/08/13 06:43:37;;;;;;;4.30;1.52;;;;;;;;;;5030785;28;20124;-78
2022/08/13 06:46:05;;;;;;;4.97;1.52;;;;;;;;;;5028519;28;20124;-78
2022/08/13 06:48:33;;;;;;;4.60;1.70;;;;;;;;;;5029057;28;20038;-78
2022/08/13 06:50:59;;;;;;;4.20;1.55;;;;;;;;;;5023771;28;20021;-77
2022/08/13 06:53:25;;;;;;;3.40;1.55;;;;;;;;;;5034087;28;20036;-78
2022/08/13 06:55:52;;;;;;;5.80;1.40;;;;;;;;;;5034974;28;20037;-77
2022/08/13 06:58:22;;;;;;;3.72;1.45;;;;;;;;;;5039584;28;20048;-77
2022/08/13 07:00:49;;;;;;;2.78;1.20;;;;;;;;;;5034063;28;20052;-77
2022/08/13 07:03:17;;;;;;;4.53;1.30;;;;;;;;;;5030798;28;20104;-77
2022/08/13 07:05:45;;;;;;;3.03;1.42;;;;;;;;;;5028586;28;20116;-78
2022/08/13 07:08:11;;;;;;;2.35;1.38;;;;;;;;;;5034731;28;20040;-78
2022/08/13 07:10:51;;;;;;;2.35;1.30;;;;;;;;;;5021767;28;20033;-78
2022/08/13 07:13:17;;;;;;;5.65;2.10;;;;;;;;;;5026227;28;20056;-78
2022/08/13 07:15:45;;;;;;;4.45;1.45;;;;;;;;;;5037106;28;20044;-79
2022/08/13 07:18:11;;;;;;;3.42;1.60;;;;;;;;;;5032405;28;20021;-77
2022/08/13 07:20:37;;;;;;;7.82;1.45;;;;;;;;;;5037492;28;20040;-78
2022/08/13 07:23:03;;;;;;;5.28;1.70;;;;;;;;;;5033389;28;20072;-78
2022/08/13 07:25:30;;;;;;;3.47;1.75;;;;;;;;;;5031744;28;20095;-78
2022/08/13 07:28:00;;;;;;;3.03;1.20;;;;;;;;;;5032421;28;20029;-77
2022/08/13 07:30:26;;;;;;;4.97;1.60;;;;;;;;;;5031058;28;20029;-77
2022/08/13 07:32:52;;;;;;;3.83;1.50;;;;;;;;;;5036139;28;20029;-77
2022/08/13 07:35:18;;;;;;;7.40;1.60;;;;;;;;;;5028133;28;20048;-77
2022/08/13 07:37:45;;;;;;;4.07;1.42;;;;;;;;;;5030612;28;20494;-77
2022/08/13 07:40:11;;;;;;;3.55;1.25;;;;;;;;;;5032230;28;20028;-77
2022/08/13 07:42:41;;;;;;;5.88;1.50;;;;;;;;;;5027068;28;20128;-77
2022/08/13 07:45:07;;;;;;;4.03;1.75;;;;;;;;;;5041251;28;20037;-77
2022/08/13 07:47:34;;;;;;;2.55;1.23;;;;;;;;;;5029921;28;20060;-78
2022/08/13 07:50:01;;;;;;;4.70;1.27;;;;;;;;;;5035846;28;20022;-78
2022/08/13 07:52:29;;;;;;;5.90;1.33;;;;;;;;;;5033729;28;20037;-78
2022/08/13 07:54:58;;;;;;;5.88;1.30;;;;;;;;;;5026109;28;20490;-77
2022/08/13 07:57:25;;;;;;;3.45;1.30;;;;;;;;;;5035251;28;20033;-77
2022/08/13 07:59:51;;;;;;;4.13;1.15;;;;;;;;;;5034325;28;20077;-77
2022/08/13 08:02:18;;;;;;;7.60;1.00;;;;;;;;;;5036994;28;20032;-77
2022/08/13 08:04:44;;;;;;;4.47;1.40;;;;;;;;;;5034763;28;20037;-77
2022/08/13 08:07:12;;;;;;;5.65;1.30;;;;;;;;;;5034152;28;20557;-77
2022/08/13 08:09:38;;;;;;;4.20;1.63;;;;;;;;;;5037720;28;20056;-78
2022/08/13 08:14:50;;;;;;;2.83;1.08;;;;;;;;;;5037876;28;20156;-77
2022/08/13 08:17:17;;;;;;;2.83;1.10;;;;;;;;;;5042014;28;20447;-78
2022/08/13 08:19:44;;;;;;;5.30;1.30;;;;;;;;;;5042207;28;20393;-77
2022/08/13 08:22:14;;;;;;;6.72;1.25;;;;;;;;;;5040575;28;20116;-77
2022/08/13 08:24:40;;;;;;;8.05;1.38;;;;;;;;;;5041953;28;20025;-77
2022/08/13 08:27:10;;;;;;;6.22;1.20;;;;;;;;;;5042661;28;20511;-77
2022/08/13 08:29:37;;;;;;;3.58;1.30;;;;;;;;;;5036968;28;20478;-77
2022/08/13 08:32:05;;;;;;;5.38;1.25;;;;;;;;;;5041572;28;20041;-78
2022/08/13 08:34:31;;;;;;;2.55;1.15;;;;;;;;;;5040711;28;20544;-78
2022/08/13 08:36:57;;;;;;;4.20;1.45;;;;;;;;;;5039043;28;20127;-78
2022/08/13 08:44:49;;;;;;;5.20;1.25;;;;;;;;;;5028787;28;20095;-78
2022/08/13 08:47:16;;;;;;;4.03;1.20;;;;;;;;;;5026802;28;20053;-78
2022/08/13 08:49:43;;;;;;;7.05;1.13;;;;;;;;;;5036476;28;20033;-78
2022/08/13 08:52:10;;;;;;;8.85;1.58;;;;;;;;;;5034820;28;20053;-78
2022/08/13 08:54:37;;;;;;;3.33;1.00;;;;;;;;;;5034553;28;20036;-77
2022/08/13 08:57:04;;;;;;;4.63;1.35;;;;;;;;;;5023300;28;20025;-78
2022/08/13 08:59:42;;;;;;;4.03;1.20;;;;;;;;;;5028740;28;20051;-78
2022/08/13 09:02:18;;;;;;;5.20;1.25;;;;;;;;;;5022961;28;20091;-77
2022/08/13 09:04:53;;;;;;;5.07;1.33;;;;;;;;;;5022040;28;20061;-78
2022/08/13 09:07:21;;;;;;;5.15;1.60;;;;;;;;;;5039541;28;20398;-77
2022/08/13 09:09:49;;;;;;;3.97;1.33;;;;;;;;;;5020883;28;20049;-78
2022/08/13 09:12:15;;;;;;;2.83;1.00;;;;;;;;;;5019765;28;20040;-77
2022/08/13 09:14:41;;;;;;;3.53;1.20;;;;;;;;;;5028746;28;20447;-78
2022/08/13 09:17:08;;;;;;;3.75;1.40;;;;;;;;;;5028702;28;20041;-78
2022/08/13 09:19:34;;;;;;;3.65;1.30;;;;;;;;;;5026028;28;20037;-78
2022/08/13 09:22:00;;;;;;;5.43;1.25;;;;;;;;;;5025679;28;20037;-77
2022/08/13 09:24:26;;;;;;;8.55;1.30;;;;;;;;;;5028692;28;20037;-78
2022/08/13 09:26:52;;;;;;;9.00;1.80;;;;;;;;;;5029418;28;20082;-78
2022/08/13 09:29:20;;;;;;;3.90;1.35;;;;;;;;;;5023323;28;20040;-78
2022/08/13 09:31:50;;;;;;;4.80;1.08;;;;;;;;;;5013501;28;20139;-78
2022/08/13 09:34:17;;;;;;;3.33;1.30;;;;;;;;;;5029918;28;20109;-79
2022/08/13 09:36:43;;;;;;;4.35;1.40;;;;;;;;;;5031142;28;20750;-79
2022/08/13 09:39:09;;;;;;;8.52;1.20;;;;;;;;;;5027980;28;20104;-78
2022/08/13 09:41:41;;;;;;;9.25;1.27;;;;;;;;;;5034010;28;20037;-78
2022/08/13 09:44:07;;;;;;;5.70;1.00;;;;;;;;;;5022835;28;20095;-78
2022/08/13 09:46:34;;;;;;;7.28;1.08;;;;;;;;;;5026696;28;20069;-78
2022/08/13 09:49:00;;;;;;;4.82;1.15;;;;;;;;;;5024135;28;20438;-78
2022/08/13 09:51:35;;;;;;;5.72;1.20;;;;;;;;;;5033805;28;20051;-77
2022/08/13 09:54:05;;;;;;;7.05;1.30;;;;;;;;;;5017043;28;20031;-78
2022/08/13 09:56:36;;;;;;;2.25;0.90;;;;;;;;;;5032506;28;20033;-78
2022/08/13 09:59:02;;;;;;;3.78;1.02;;;;;;;;;;5036281;28;20045;-78
2022/08/13 10:01:28;;;;;;;5.65;1.25;;;;;;;;;;5042381;28;20044;-77
2022/08/13 10:03:54;;;;;;;4.18;1.30;;;;;;;;;;5030854;28;20037;-78
2022/08/13 10:06:20;;;;;;;6.07;1.10;;;;;;;;;;5030619;28;20105;-78
2022/08/13 10:08:47;;;;;;;4.70;1.15;;;;;;;;;;5028973;28;20065;-78
2022/08/13 10:11:14;;;;;;;14.15;1.27;;;;;;;;;;5027625;28;20029;-78
2022/08/13 10:13:40;;;;;;;5.00;1.20;;;;;;;;;;5022207;28;20038;-78
2022/08/13 10:16:06;;;;;;;5.28;1.27;;;;;;;;;;5025382;28;20041;-78
2022/08/13 10:18:32;;;;;;;5.20;1.23;;;;;;;;;;5028798;28;20040;-78
2022/08/13 10:20:58;;;;;;;5.60;1.00;;;;;;;;;;5035004;28;20034;-78
2022/08/13 10:23:24;;;;;;;4.35;1.05;;;;;;;;;;5039744;28;20504;-78
2022/08/13 10:25:52;;;;;;;2.42;1.10;;;;;;;;;;5037509;28;20036;-78
2022/08/13 10:28:31;;;;;;;3.10;0.98;;;;;;;;;;5031267;28;20024;-78
2022/08/13 10:31:07;;;;;;;2.40;0.82;;;;;;;;;;5035584;28;20029;-77
2022/08/13 10:33:33;;;;;;;2.60;0.80;;;;;;;;;;5038783;28;20456;-78
2022/08/13 10:35:59;;;;;;;8.63;1.30;;;;;;;;;;5042644;28;20041;-78
2022/08/13 10:38:29;;;;;;;4.65;1.00;;;;;;;;;;5034848;28;20503;-78
2022/08/13 10:41:07;;;;;;;3.95;0.90;;;;;;;;;;5039438;28;20652;-77
2022/08/13 10:43:38;;;;;;;2.03;0.70;;;;;;;;;;5042696;28;20025;-78
2022/08/13 10:46:05;;;;;;;2.80;1.10;;;;;;;;;;5039344;28;20037;-78
2022/08/13 10:48:31;;;;;;;2.60;1.25;;;;;;;;;;5043242;28;20033;-78
2022/08/13 10:50:57;;;;;;;3.08;1.10;;;;;;;;;;5042717;28;20040;-78
2022/08/13 10:56:10;;;;;;;2.40;0.80;;;;;;;;;;5024131;28;20169;-78
2022/08/13 10:58:36;;;;;;;2.88;0.82;;;;;;;;;;5034338;28;20029;-78
2022/08/13 11:01:03;;;;;;;5.95;0.90;;;;;;;;;;5036590;28;20040;-78
2022/08/13 11:03:33;;;;;;;4.38;1.00;;;;;;;;;;5033018;28;20068;-78
2022/08/13 11:06:00;;;;;;;5.20;1.55;;;;;;;;;;5036541;28;20030;-78
2022/08/13 11:08:38;;;;;;;3.22;1.00;;;;;;;;;;5037788;28;20083;-78
2022/08/13 11:11:08;;;;;;;6.53;1.30;;;;;;;;;;5039205;28;20160;-78
2022/08/13 11:13:36;;;;;;;7.70;1.15;;;;;;;;;;5040009;28;20032;-79
2022/08/13 11:16:02;;;;;;;6.93;0.90;;;;;;;;;;5034806;28;20033;-76
2022/08/13 11:18:29;;;;;;;3.90;1.30;;;;;;;;;;5036017;28;20121;-78
2022/08/13 11:21:07;;;;;;;3.65;0.90;;;;;;;;;;5040975;28;20108;-78
2022/08/13 11:23:34;;;;;;;4.20;0.90;;;;;;;;;;5040928;28;20485;-77
2022/08/13 11:26:00;;;;;;;1.67;0.80;;;;;;;;;;5041157;28;20040;-77
2022/08/13 11:28:26;;;;;;;4.68;0.90;;;;;;;;;;5043100;28;20037;-78
2022/08/13 11:30:53;;;;;;;5.53;0.90;;;;;;;;;;5041755;28;20143;-77
2022/08/13 11:33:20;;;;;;;3.65;0.70;;;;;;;;;;5039294;28;20024;-77
2022/08/13 11:35:46;;;;;;;3.15;0.70;;;;;;;;;;5037656;28;20037;-77
2022/08/13 11:38:14;;;;;;;3.67;1.00;;;;;;;;;;5042409;28;20039;-77
2022/08/13 11:40:45;;;;;;;3.80;0.93;;;;;;;;;;5041987;28;20033;-78
2022/08/13 11:43:11;;;;;;;3.92;0.80;;;;;;;;;;5038973;28;20018;-78
2022/08/13 11:45:37;;;;;;;4.07;1.10;;;;;;;;;;5038383;28;20045;-77
2022/08/13 11:48:05;;;;;;;3.10;0.77;;;;;;;;;;5036054;28;20048;-77
2022/08/13 11:50:31;;;;;;;4.32;1.05;;;;;;;;;;5035484;28;20040;-77
2022/08/13 11:52:57;;;;;;;3.00;0.70;;;;;;;;;;5039664;28;20064;-77
2022/08/13 11:55:23;;;;;;;4.25;0.90;;;;;;;;;;5039602;28;20108;-78
2022/08/13 11:57:59;;;;;;;3.72;0.93;;;;;;;;;;5045691;28;20139;-78
2022/08/13 12:00:26;;;;;;;2.03;0.80;;;;;;;;;;5038616;28;20418;-78
2022/08/13 12:02:52;;;;;;;2.35;0.70;;;;;;;;;;5040762;28;20847;-78
2022/08/13 12:05:18;;;;;;;5.75;0.70;;;;;;;;;;5034454;28;20632;-77
2022/08/13 12:07:44;;;;;;;3.72;0.75;;;;;;;;;;5041496;28;20217;-78
2022/08/13 12:10:10;;;;;;;2.20;0.90;;;;;;;;;;5038021;28;20116;-78
2022/08/13 12:12:36;;;;;;;2.35;0.70;;;;;;;;;;5037910;28;20033;-77
2022/08/13 12:15:03;;;;;;;4.63;0.90;;;;;;;;;;5036314;28;20029;-78
2022/08/13 12:17:29;;;;;;;2.10;0.75;;;;;;;;;;5013248;28;20141;-78
2022/08/13 12:19:55;;;;;;;4.65;0.65;;;;;;;;;;5020792;28;20029;-78
2022/08/13 12:22:21;;;;;;;2.67;1.00;;;;;;;;;;5018885;28;20038;-78
2022/08/13 12:24:47;;;;;;;5.65;0.98;;;;;;;;;;5020125;28;20088;-77
2022/08/13 12:27:13;;;;;;;1.75;0.60;;;;;;;;;;5023344;28;20402;-77
2022/08/13 12:29:40;;;;;;;2.42;0.70;;;;;;;;;;5019584;28;20029;-77
2022/08/13 12:32:06;;;;;;;6.72;0.80;;;;;;;;;;5029939;28;20040;-78
2022/08/13 12:34:32;;;;;;;3.63;0.70;;;;;;;;;;5026288;28;20048;-78
2022/08/13 12:36:58;;;;;;;1.55;0.50;;;;;;;;;;5032578;28;20498;-78
2022/08/13 12:39:24;;;;;;;3.28;0.70;;;;;;;;;;5029893;28;20430;-77
2022/08/13 12:41:50;;;;;;;2.63;0.52;;;;;;;;;;5024939;28;20087;-77
2022/08/13 12:44:16;;;;;;;2.92;0.70;;;;;;;;;;5020519;28;20061;-78
2022/08/13 12:46:42;;;;;;;3.15;0.60;;;;;;;;;;5031909;28;20061;-78
2022/08/13 12:49:08;;;;;;;0.93;0.40;;;;;;;;;;5034289;28;20097;-78
2022/08/13 12:51:34;;;;;;;3.10;0.50;;;;;;;;;;5030280;28;20463;-78
2022/08/13 12:54:00;;;;;;;3.28;0.70;;;;;;;;;;5025899;28;20090;-78
2022/08/13 12:56:26;;;;;;;2.17;0.60;;;;;;;;;;5029353;28;20437;-78
2022/08/13 12:58:52;;;;;;;2.30;0.60;;;;;;;;;;5032029;28;20078;-78
2022/08/13 13:01:18;;;;;;;2.60;0.40;;;;;;;;;;5026464;28;20033;-78
2022/08/13 13:03:44;;;;;;;1.67;0.47;;;;;;;;;;5025928;28;20021;-78
2022/08/13 13:06:10;;;;;;;1.35;0.40;;;;;;;;;;5031861;28;20033;-78
2022/08/13 13:08:36;;;;;;;1.23;0.40;;;;;;;;;;5028048;28;20050;-77
2022/08/13 13:11:08;;;;;;;2.30;0.52;;;;;;;;;;5015100;28;20042;-78
2022/08/13 13:13:35;;;;;;;;;;;;;;;;;;5031195;28;20032;-78
2022/08/13 13:16:02;;;;;;;2.50;0.47;;;;;;;;;;5030286;28;19964;-78
2022/08/13 13:18:28;;;;;;;4.35;0.50;;;;;;;;;;5032150;28;20033;-77
2022/08/13 13:20:55;;;;;;;1.20;0.40;;;;;;;;;;5023666;28;20033;-78
2022/08/13 13:23:22;;;;;;;1.02;0.40;;;;;;;;;;5025470;28;20030;-78
2022/08/13 13:25:49;;;;;;;0.85;0.30;;;;;;;;;;5026337;28;20039;-78
2022/08/13 13:28:16;;;;;;;1.80;0.40;;;;;;;;;;5023866;28;20034;-77
2022/08/13 13:30:44;;;;;;;1.30;0.40;;;;;;;;;;5028584;28;20045;-77
2022/08/13 13:33:11;;;;;;;0.98;0.43;;;;;;;;;;5025064;28;20554;-78
2022/08/13 13:35:38;;;;;;;1.70;0.60;;;;;;;;;;5032979;28;20033;-78
2022/08/13 13:38:05;;;;;;;1.52;0.40;;;;;;;;;;5028277;28;20074;-77
2022/08/13 13:40:32;;;;;;;4.25;0.50;;;;;;;;;;5028600;28;20208;-78
2022/08/13 13:42:58;;;;;;;3.55;0.45;;;;;;;;;;5028892;28;20036;-78
2022/08/13 13:45:27;;;;;;;2.30;0.30;;;;;;;;;;5040088;28;20122;-78
2022/08/13 13:47:53;;;;;;;1.40;0.32;;;;;;;;;;5030318;28;20501;-77
2022/08/13 13:50:19;;;;;;;1.83;0.30;;;;;;;;;;5038563;28;20036;-78
2022/08/13 13:52:45;;;;;;;1.15;0.40;;;;;;;;;;5032706;28;20041;-78
2022/08/13 13:55:11;;;;;;;4.00;0.60;;;;;;;;;;5033000;28;20026;-77
2022/08/13 13:57:40;;;;;;;2.60;0.40;;;;;;;;;;5024295;28;20075;-78
2022/08/13 14:00:07;;;;;;;0.75;0.30;;;;;;;;;;5021367;28;20041;-78
2022/08/13 14:02:34;;;;;;;5.43;0.50;;;;;;;;;;5031419;28;20309;-78
2022/08/13 14:05:00;;;;;;;1.73;0.65;;;;;;;;;;5031782;28;20037;-78
2022/08/13 14:07:29;;;;;;;0.88;0.40;;;;;;;;;;5032960;28;20038;-78
2022/08/13 14:09:55;;;;;;;1.23;0.50;;;;;;;;;;5028662;28;20490;-78
2022/08/13 14:12:22;;;;;;;0.75;0.40;;;;;;;;;;5024896;28;20732;-77
2022/08/13 14:14:48;;;;;;;0.68;0.40;;;;;;;;;;5036533;28;20037;-78
2022/08/13 14:17:14;;;;;;;3.90;0.30;;;;;;;;;;5030866;28;20117;-78
2022/08/13 14:19:41;;;;;;;3.30;0.40;;;;;;;;;;5032166;28;20884;-78
2022/08/13 14:22:08;;;;;;;0.80;0.40;;;;;;;;;;5036327;28;20033;-77
2022/08/13 14:24:38;;;;;;;0.70;0.30;;;;;;;;;;5032921;28;20071;-78
2022/08/13 14:27:04;;;;;;;3.80;0.45;;;;;;;;;;5031024;28;20037;-78
2022/08/13 14:29:30;;;;;;;0.63;0.40;;;;;;;;;;5030985;28;20039;-78
2022/08/13 14:31:56;;;;;;;1.15;0.30;;;;;;;;;;5034281;28;20614;-78
2022/08/13 14:34:23;;;;;;;1.00;0.43;;;;;;;;;;5037076;28;20413;-77
2022/08/13 14:36:49;;;;;;;0.70;0.43;;;;;;;;;;5035279;28;20040;-78
2022/08/13 14:39:15;;;;;;;1.95;0.50;;;;;;;;;;5037178;28;20108;-77
2022/08/13 14:41:41;;;;;;;2.83;0.50;;;;;;;;;;5036789;28;20068;-78
2022/08/13 14:44:07;;;;;;;1.35;0.40;;;;;;;;;;5028538;28;20421;-78
2022/08/13 14:46:34;;;;;;;2.33;0.70;;;;;;;;;;5025374;28;20041;-78
2022/08/13 14:49:01;;;;;;;1.73;0.40;;;;;;;;;;5032644;28;20038;-78
2022/08/13 14:51:28;;;;;;;3.05;0.60;;;;;;;;;;5030337;28;20034;-77
2022/08/13 14:53:54;;;;;;;2.75;0.50;;;;;;;;;;5035304;28;20431;-78
2022/08/13 14:56:21;;;;;;;0.65;0.40;;;;;;;;;;5036693;28;20033;-78
2022/08/13 14:58:51;;;;;;;1.48;0.43;;;;;;;;;;5033480;28;20116;-78
2022/08/13 15:01:18;;;;;;;2.85;0.47;;;;;;;;;;5034952;28;20029;-78
2022/08/13 15:03:45;;;;;;;1.05;0.50;;;;;;;;;;5032842;28;20044;-78
2022/08/13 15:06:11;;;;;;;1.65;0.40;;;;;;;;;;5032950;28;20467;-77
2022/08/13 15:08:38;;;;;;;4.47;0.75;;;;;;;;;;5024493;28;20041;-78